Terminal Aerodrome Forecast
Issued by NWS

Home | Current Version | Previous Version | Graphics & Text | Print | Product List | Glossary On
Versions: 1 2 3 4 5 6 7 8 9 10 11 12 13 14 15 16 17 18 19 20 21 22
000
FTUS43 KBIS 231503 AAB
TAFJMS
TAF AMD
KJMS 231503Z 2315/2412 08008KT P6SM OVC025
     FM231700 11012G25KT 6SM -SHRA VCTS OVC015CB
      TEMPO 2318/2320 4SM -TSRA BKN008CB
     FM240000 11012G24KT P6SM OVC006
     FM241100 13013G19KT P6SM BKN020=

USA.gov is the U.S. government's official web portal to all federal, state and local government web resources and services.